createdAt,value
2022-07-26T00:01:35.462Z,20.17
2022-07-26T00:04:29.457Z,17.80
2022-07-26T00:07:16.454Z,18.25
2022-07-26T00:09:49.613Z,18.80
2022-07-26T00:12:36.455Z,19.77
2022-07-26T00:15:12.661Z,20.05
2022-07-26T00:17:59.483Z,18.20
2022-07-26T00:20:39.442Z,18.58
2022-07-26T00:23:26.447Z,18.75
2022-07-26T00:25:59.777Z,18.30
2022-07-26T00:28:47.474Z,18.92
2022-07-26T00:31:20.689Z,17.40
2022-07-26T00:34:07.452Z,21.08
2022-07-26T00:36:41.875Z,20.00
2022-07-26T00:39:28.507Z,17.85
2022-07-26T00:42:01.694Z,20.15
2022-07-26T00:44:50.489Z,17.40
2022-07-26T00:47:23.620Z,19.15
2022-07-26T00:50:13.489Z,18.17
2022-07-26T00:53:00.540Z,19.23
2022-07-26T00:55:54.498Z,20.23
2022-07-26T00:58:48.465Z,21.55
2022-07-26T01:01:35.581Z,19.58
2022-07-26T01:04:09.937Z,18.45
2022-07-26T01:06:56.485Z,18.05
2022-07-26T01:09:30.666Z,19.42
2022-07-26T01:12:20.475Z,20.65
2022-07-26T01:15:01.493Z,18.80
2022-07-26T01:17:49.502Z,19.65
2022-07-26T01:20:29.496Z,17.50
2022-07-26T01:23:16.538Z,19.92
2022-07-26T01:25:52.587Z,19.25
2022-07-26T01:28:43.505Z,19.95
2022-07-26T01:31:23.552Z,20.90
2022-07-26T01:34:17.505Z,20.17
2022-07-26T01:37:06.494Z,17.50
2022-07-26T01:39:39.644Z,19.17
2022-07-26T01:42:26.530Z,19.52
2022-07-26T01:45:06.492Z,19.38
2022-07-26T01:48:00.535Z,20.85
2022-07-26T01:50:47.484Z,19.38
2022-07-26T01:53:20.614Z,18.65
2022-07-26T01:56:07.505Z,19.00
2022-07-26T01:58:47.498Z,19.75
2022-07-26T02:01:41.555Z,20.08
2022-07-26T02:04:53.498Z,20.92
2022-07-26T02:07:49.545Z,20.67
2022-07-26T02:10:31.517Z,20.45
2022-07-26T02:13:27.519Z,19.80
2022-07-26T02:16:27.565Z,17.52
2022-07-26T02:19:14.535Z,17.38
2022-07-26T02:21:54.514Z,19.90
2022-07-26T02:24:41.515Z,20.45
2022-07-26T02:27:23.510Z,17.98
2022-07-26T02:30:10.532Z,17.45
2022-07-26T02:32:50.545Z,18.83
2022-07-26T02:35:44.525Z,19.77
2022-07-26T02:38:38.558Z,21.92
2022-07-26T02:41:32.531Z,18.25
2022-07-26T02:44:19.541Z,19.85
2022-07-26T02:46:59.644Z,19.67
2022-07-26T02:49:46.517Z,20.42
2022-07-26T02:52:27.541Z,19.98
2022-07-26T02:55:21.526Z,19.55
2022-07-26T02:58:08.552Z,19.17
2022-07-26T03:00:41.621Z,18.90
2022-07-26T03:03:28.539Z,20.73
2022-07-26T03:06:01.677Z,18.90
2022-07-26T03:08:48.564Z,18.85
2022-07-26T03:11:22.715Z,19.08
2022-07-26T03:14:10.127Z,19.13
2022-07-26T03:16:43.616Z,20.52
2022-07-26T03:19:30.594Z,20.23
2022-07-26T03:22:03.642Z,19.17
2022-07-26T03:24:50.566Z,19.88
2022-07-26T03:27:23.662Z,19.05
2022-07-26T03:30:11.570Z,17.90
2022-07-26T03:32:54.541Z,19.00
2022-07-26T03:35:48.558Z,19.08
2022-07-26T03:38:42.619Z,19.90
2022-07-26T03:41:38.624Z,16.90
2022-07-26T03:44:25.572Z,19.10
2022-07-26T03:46:59.016Z,19.05
2022-07-26T03:49:45.572Z,16.70
2022-07-26T03:52:18.677Z,17.67
2022-07-26T03:55:05.558Z,17.45
2022-07-26T03:57:41.760Z,18.13
2022-07-26T04:00:35.565Z,19.73
2022-07-26T04:03:22.603Z,17.10
2022-07-26T04:06:02.618Z,19.02
2022-07-26T04:08:57.588Z,18.40
2022-07-26T04:11:51.600Z,18.25
2022-07-26T04:14:38.597Z,17.23
2022-07-26T04:17:11.842Z,17.77
2022-07-26T04:19:58.588Z,19.17
2022-07-26T04:22:31.933Z,17.30
2022-07-26T04:25:18.602Z,16.63
2022-07-26T04:27:58.600Z,17.52
2022-07-26T04:30:46.619Z,24.02
2022-07-26T04:33:19.733Z,21.35
2022-07-26T04:36:06.653Z,21.77
2022-07-26T04:38:39.742Z,21.65
2022-07-26T04:41:26.570Z,17.30
2022-07-26T04:43:59.697Z,17.50
2022-07-26T04:46:46.598Z,17.92
2022-07-26T04:49:26.606Z,17.02
2022-07-26T04:52:13.599Z,18.35
2022-07-26T04:54:53.627Z,18.00
2022-07-26T04:57:47.786Z,17.50
2022-07-26T05:01:08.493Z,17.95
2022-07-26T05:03:55.626Z,16.40
2022-07-26T05:06:42.600Z,17.10
2022-07-26T05:09:15.716Z,17.13
2022-07-26T05:12:02.602Z,16.60
2022-07-26T05:14:43.653Z,17.60
2022-07-26T05:17:39.600Z,17.35
2022-07-26T05:20:33.599Z,17.70
2022-07-26T05:23:27.615Z,18.60
2022-07-26T05:26:21.614Z,19.38
2022-07-26T05:29:15.623Z,19.95
2022-07-26T05:32:09.611Z,21.15
2022-07-26T05:34:56.635Z,21.15
2022-07-26T05:37:29.745Z,17.50
2022-07-26T05:40:16.635Z,20.55
2022-07-26T05:42:56.633Z,18.92
2022-07-26T05:45:50.694Z,17.77
2022-07-26T05:48:44.686Z,19.95
2022-07-26T05:51:38.604Z,21.88
2022-07-26T05:54:27.646Z,20.95
2022-07-26T05:57:00.737Z,19.27
2022-07-26T05:59:54.677Z,19.77
2022-07-26T06:02:48.719Z,20.45
2022-07-26T06:05:35.639Z,20.52
2022-07-26T06:08:08.770Z,18.15
2022-07-26T06:10:55.772Z,19.58
2022-07-26T06:13:29.833Z,17.25
2022-07-26T06:16:16.693Z,20.90
2022-07-26T06:18:56.657Z,20.33
2022-07-26T06:21:43.708Z,19.13
2022-07-26T06:24:23.684Z,19.08
2022-07-26T06:27:11.650Z,22.63
2022-07-26T06:29:51.648Z,19.38
2022-07-26T06:32:45.677Z,17.52
2022-07-26T06:35:41.650Z,19.60
2022-07-26T06:38:28.660Z,20.15
2022-07-26T06:41:01.771Z,17.98
2022-07-26T06:43:48.722Z,18.23
2022-07-26T06:46:21.939Z,18.40
2022-07-26T06:49:08.839Z,18.98
2022-07-26T06:51:41.873Z,19.23
2022-07-26T06:54:28.684Z,19.58
2022-07-26T06:57:01.770Z,20.40
2022-07-26T06:59:55.681Z,19.30
2022-07-26T07:02:49.661Z,22.05
2022-07-26T07:05:36.756Z,23.70
2022-07-26T07:08:09.785Z,22.80
2022-07-26T07:10:58.705Z,22.23
2022-07-26T07:13:38.707Z,20.60
2022-07-26T07:16:25.739Z,20.55
2022-07-26T07:19:05.681Z,23.38
2022-07-26T07:21:52.684Z,23.92
2022-07-26T07:24:25.803Z,22.02
2022-07-26T07:27:12.687Z,22.98
2022-07-26T07:29:45.831Z,21.27
2022-07-26T07:32:32.777Z,21.92
2022-07-26T07:35:08.044Z,20.98
2022-07-26T07:37:59.730Z,21.17
2022-07-26T07:40:35.814Z,21.92
2022-07-26T07:43:22.696Z,23.48
2022-07-26T07:46:02.850Z,22.45
2022-07-26T07:48:56.838Z,21.73
2022-07-26T07:51:58.711Z,21.83
2022-07-26T07:54:56.191Z,23.02
2022-07-26T07:57:53.723Z,21.70
2022-07-26T08:00:29.814Z,21.60
2022-07-26T08:03:18.023Z,20.80
2022-07-26T08:05:59.720Z,21.88
2022-07-26T08:08:53.714Z,20.17
2022-07-26T08:11:50.834Z,21.85
2022-07-26T08:14:37.717Z,22.13
2022-07-26T08:17:13.870Z,20.67
2022-07-26T08:20:00.838Z,17.58
2022-07-26T08:22:41.739Z,19.60
2022-07-26T08:25:35.745Z,22.40
2022-07-26T08:31:43.779Z,19.52
2022-07-26T08:34:37.809Z,18.67
2022-07-26T08:37:31.734Z,31.23
2022-07-26T08:40:18.733Z,23.25
2022-07-26T08:43:08.754Z,19.88
2022-07-26T08:46:02.758Z,21.13
2022-07-26T08:49:04.983Z,20.92
2022-07-26T08:51:51.794Z,21.40
2022-07-26T08:54:24.894Z,21.77
2022-07-26T08:57:11.735Z,20.08
2022-07-26T08:59:55.756Z,21.10
2022-07-26T09:02:53.765Z,21.33
2022-07-26T09:05:49.746Z,20.10
2022-07-26T09:08:36.782Z,20.73
2022-07-26T09:11:29.987Z,19.83
2022-07-26T09:14:16.753Z,20.33
2022-07-26T09:17:04.885Z,21.20
2022-07-26T09:19:52.832Z,20.15
2022-07-26T09:22:25.872Z,20.90
2022-07-26T09:25:27.766Z,21.10
2022-07-26T09:28:01.933Z,20.40
2022-07-26T09:31:05.835Z,19.88
2022-07-26T09:33:52.950Z,20.45
2022-07-26T09:36:39.783Z,20.83
2022-07-26T09:39:33.368Z,22.00
2022-07-26T09:42:29.463Z,22.70
2022-07-26T09:45:30.780Z,22.92
2022-07-26T09:48:25.785Z,22.95
2022-07-26T09:51:13.784Z,23.15
2022-07-26T09:53:53.877Z,24.65
2022-07-26T09:56:58.777Z,23.95
2022-07-26T09:59:40.775Z,22.98
2022-07-26T10:02:34.862Z,23.80
2022-07-26T10:05:21.786Z,24.25
2022-07-26T10:07:59.302Z,24.08
2022-07-26T10:10:56.796Z,23.13
2022-07-26T10:13:30.519Z,22.30
2022-07-26T10:16:36.793Z,23.77
2022-07-26T10:19:18.789Z,25.88
2022-07-26T10:22:30.799Z,22.45
2022-07-26T10:25:45.817Z,23.60
2022-07-26T10:28:42.815Z,22.15
2022-07-26T10:31:40.835Z,22.90
2022-07-26T10:35:00.812Z,23.63
2022-07-26T10:38:11.828Z,24.60
2022-07-26T10:41:08.808Z,25.73
2022-07-26T10:44:34.868Z,22.13
2022-07-26T10:47:24.894Z,23.08
2022-07-26T10:50:05.731Z,23.95
2022-07-26T10:53:04.845Z,24.83
2022-07-26T10:55:44.828Z,28.30
2022-07-26T10:58:33.820Z,25.63
2022-07-26T11:01:09.991Z,26.05
2022-07-26T11:03:56.861Z,27.65
2022-07-26T11:06:40.845Z,27.38
2022-07-26T11:09:27.835Z,24.48
2022-07-26T11:12:07.827Z,25.58
2022-07-26T11:14:54.838Z,25.52
2022-07-26T11:17:37.950Z,28.35
2022-07-26T11:20:33.847Z,25.63
2022-07-26T11:23:14.826Z,26.77
2022-07-26T11:26:13.859Z,23.63
2022-07-26T11:29:17.778Z,27.35
2022-07-26T11:32:18.535Z,25.85
2022-07-26T11:35:10.842Z,29.17
2022-07-26T11:37:50.854Z,30.15
2022-07-26T11:40:57.843Z,28.58
2022-07-26T11:43:52.883Z,28.58
2022-07-26T11:46:53.967Z,30.48
2022-07-26T11:49:51.966Z,33.58
2022-07-26T11:52:39.861Z,30.33
2022-07-26T11:55:21.046Z,32.33
2022-07-26T11:58:18.880Z,33.78
2022-07-26T12:01:12.885Z,34.70
2022-07-26T12:04:01.985Z,32.25
2022-07-26T12:06:35.032Z,34.50
2022-07-26T12:09:42.855Z,33.83
2022-07-26T12:12:33.877Z,34.25
2022-07-26T12:15:27.902Z,32.55
2022-07-26T12:18:14.895Z,31.20
2022-07-26T12:21:19.870Z,29.73
2022-07-26T12:24:14.087Z,31.50
2022-07-26T12:27:31.891Z,30.33
2022-07-26T12:30:08.322Z,26.77
2022-07-26T12:32:57.880Z,26.98
2022-07-26T12:35:47.065Z,27.60
2022-07-26T12:38:55.950Z,27.35
2022-07-26T12:41:53.885Z,24.83
2022-07-26T12:44:40.907Z,29.23
2022-07-26T12:47:14.001Z,26.48
2022-07-26T12:50:00.911Z,26.85
2022-07-26T12:52:44.896Z,25.42
2022-07-26T12:55:38.941Z,27.35
2022-07-26T12:58:25.896Z,26.33
2022-07-26T13:00:59.079Z,26.10
2022-07-26T13:03:45.912Z,25.02
2022-07-26T13:06:19.126Z,25.25
2022-07-26T13:09:05.884Z,29.98
2022-07-26T13:11:39.036Z,31.02
2022-07-26T13:14:32.898Z,31.63
2022-07-26T13:17:26.943Z,31.05
2022-07-26T13:20:21.042Z,31.15
2022-07-26T13:23:21.409Z,32.50
2022-07-26T13:26:15.918Z,30.33
2022-07-26T13:29:09.931Z,30.05
2022-07-26T13:31:57.945Z,31.55
2022-07-26T13:34:34.887Z,32.67
2022-07-26T13:37:21.924Z,32.58
2022-07-26T13:39:55.030Z,33.65
2022-07-26T13:42:41.926Z,29.30
2022-07-26T13:45:22.925Z,29.65
2022-07-26T13:48:17.932Z,33.75
2022-07-26T13:51:04.933Z,30.70
2022-07-26T13:53:54.883Z,29.95
2022-07-26T13:56:42.921Z,30.08
2022-07-26T13:59:17.074Z,28.42
2022-07-26T14:02:04.094Z,29.33
2022-07-26T14:04:43.947Z,30.05
2022-07-26T14:07:37.932Z,26.88
2022-07-26T14:10:32.968Z,27.23
2022-07-26T14:13:27.340Z,30.02
2022-07-26T14:16:20.995Z,28.30
2022-07-26T14:19:07.953Z,30.00
2022-07-26T14:21:48.842Z,29.95
2022-07-26T14:24:46.948Z,30.75
2022-07-26T14:27:20.115Z,28.30
2022-07-26T14:30:06.956Z,32.55
2022-07-26T14:32:40.037Z,32.63
2022-07-26T14:35:26.978Z,31.55
2022-07-26T14:38:00.105Z,28.55
2022-07-26T14:40:47.995Z,31.77
2022-07-26T14:43:27.964Z,31.65
2022-07-26T14:46:16.027Z,33.08
2022-07-26T14:48:55.205Z,34.05
2022-07-26T14:51:42.977Z,34.55
2022-07-26T14:54:22.979Z,36.78
2022-07-26T14:57:09.959Z,33.88
2022-07-26T14:59:43.045Z,34.85
2022-07-26T15:02:30.037Z,35.88
2022-07-26T15:05:10.985Z,36.60
2022-07-26T15:08:00.579Z,36.45
2022-07-26T15:10:38.107Z,34.83
2022-07-26T15:13:25.998Z,33.45
2022-07-26T15:15:59.180Z,34.38
2022-07-26T15:18:45.962Z,36.67
2022-07-26T15:21:27.978Z,34.72
2022-07-26T15:24:22.982Z,35.03
2022-07-26T15:27:10.015Z,33.75
2022-07-26T15:29:43.265Z,34.00
2022-07-26T15:32:29.983Z,34.78
2022-07-26T15:35:14.709Z,35.30
2022-07-26T15:38:10.063Z,32.95
2022-07-26T15:40:58.354Z,34.33
2022-07-26T15:43:48.967Z,34.10
2022-07-26T15:46:35.993Z,33.55
2022-07-26T15:49:17.060Z,31.08
2022-07-26T15:52:11.062Z,30.33
2022-07-26T15:55:05.043Z,34.03
2022-07-26T15:58:00.003Z,35.13
2022-07-26T16:00:54.017Z,31.88
2022-07-26T16:03:48.014Z,31.33
2022-07-26T16:06:45.041Z,34.00
2022-07-26T16:09:31.999Z,29.60
2022-07-26T16:12:06.217Z,31.38
2022-07-26T16:14:56.028Z,30.15
2022-07-26T16:17:29.128Z,29.65
2022-07-26T16:20:17.041Z,29.33
2022-07-26T16:22:50.203Z,28.63
2022-07-26T16:25:40.030Z,27.08
2022-07-26T16:28:13.184Z,30.08
2022-07-26T16:30:59.998Z,23.35
2022-07-26T16:33:33.139Z,20.30
2022-07-26T16:36:21.044Z,21.30
2022-07-26T16:38:54.157Z,21.23
2022-07-26T16:41:44.062Z,18.75
2022-07-26T16:44:17.188Z,18.48
2022-07-26T16:47:04.131Z,17.88
2022-07-26T16:49:44.039Z,16.73
2022-07-26T16:52:34.039Z,16.75
2022-07-26T16:55:17.046Z,15.40
2022-07-26T16:58:11.085Z,20.33
2022-07-26T17:01:05.097Z,17.38
2022-07-26T17:03:59.057Z,16.00
2022-07-26T17:07:22.408Z,16.08
2022-07-26T17:10:02.037Z,17.58
2022-07-26T17:12:35.180Z,19.02
2022-07-26T17:15:22.055Z,17.48
2022-07-26T17:17:55.178Z,16.38
2022-07-26T17:20:43.044Z,17.30
2022-07-26T17:23:18.395Z,19.48
2022-07-26T17:26:05.051Z,18.70
2022-07-26T17:28:45.174Z,17.27
2022-07-26T17:31:25.058Z,18.38
2022-07-26T17:34:12.054Z,18.67
2022-07-26T17:36:52.056Z,19.75
2022-07-26T17:39:51.669Z,17.77
2022-07-26T17:42:26.430Z,19.70
2022-07-26T17:45:06.112Z,19.92
2022-07-26T17:47:46.062Z,19.50
2022-07-26T17:50:36.616Z,16.70
2022-07-26T17:53:34.182Z,18.98
2022-07-26T17:56:10.388Z,19.80
2022-07-26T17:58:57.075Z,18.58
2022-07-26T18:01:37.105Z,18.23
2022-07-26T18:04:37.117Z,18.45
2022-07-26T18:07:17.143Z,17.38
2022-07-26T18:09:57.192Z,19.55
2022-07-26T18:12:56.905Z,20.85
2022-07-26T18:15:37.504Z,20.05
2022-07-26T18:18:18.121Z,19.92
2022-07-26T18:21:06.957Z,18.00
2022-07-26T18:24:14.258Z,18.38
2022-07-26T18:26:54.114Z,18.48
2022-07-26T18:29:27.601Z,17.73
2022-07-26T18:32:14.110Z,16.90
2022-07-26T18:34:54.110Z,20.58
2022-07-26T18:37:41.186Z,20.90
2022-07-26T18:40:14.511Z,17.27
2022-07-26T18:43:04.119Z,17.10
2022-07-26T18:45:37.465Z,19.05
2022-07-26T18:48:27.211Z,20.48
2022-07-26T18:51:08.151Z,18.58
2022-07-26T18:53:55.238Z,17.48
2022-07-26T18:56:35.228Z,23.00
2022-07-26T18:59:22.120Z,19.92
2022-07-26T19:01:55.604Z,18.83
2022-07-26T19:04:46.959Z,19.27
2022-07-26T19:07:20.596Z,18.88
2022-07-26T19:10:07.143Z,18.70
2022-07-26T19:12:47.936Z,18.90
2022-07-26T19:15:28.342Z,20.10
2022-07-26T19:18:17.185Z,22.88
2022-07-26T19:20:57.396Z,22.15
2022-07-26T19:23:37.190Z,20.50
2022-07-26T19:26:17.450Z,20.55
2022-07-26T19:28:57.145Z,21.92
2022-07-26T19:31:42.979Z,23.17
2022-07-26T19:34:23.169Z,22.38
2022-07-26T19:37:03.352Z,19.40
2022-07-26T19:39:43.141Z,21.33
2022-07-26T19:42:31.146Z,21.83
2022-07-26T19:45:11.140Z,21.50
2022-07-26T19:47:58.158Z,20.92
2022-07-26T19:50:38.152Z,19.58
2022-07-26T19:53:25.192Z,20.35
2022-07-26T19:55:58.575Z,20.95
2022-07-26T19:58:45.197Z,19.58
2022-07-26T20:01:25.303Z,20.42
2022-07-26T20:04:12.161Z,22.35
2022-07-26T20:06:45.506Z,22.77
2022-07-26T20:09:33.188Z,21.60
2022-07-26T20:12:13.224Z,24.27
2022-07-26T20:14:53.282Z,22.27
2022-07-26T20:17:33.336Z,20.85
2022-07-26T20:20:22.159Z,34.63
2022-07-26T20:22:55.754Z,26.98
2022-07-26T20:25:42.202Z,22.10
2022-07-26T20:28:16.112Z,23.05
2022-07-26T20:31:03.282Z,22.90
2022-07-26T20:33:43.201Z,24.75
2022-07-26T20:36:30.166Z,24.83
2022-07-26T20:39:11.585Z,22.77
2022-07-26T20:42:01.486Z,21.88
2022-07-26T20:44:34.624Z,22.25
2022-07-26T20:47:21.186Z,23.58
2022-07-26T20:50:02.929Z,22.42
2022-07-26T20:52:51.188Z,21.75
2022-07-26T20:55:24.691Z,21.17
2022-07-26T20:58:13.210Z,23.60
2022-07-26T21:01:01.210Z,21.13
2022-07-26T21:03:48.212Z,22.77
2022-07-26T21:06:21.333Z,23.73
2022-07-26T21:09:09.821Z,22.92
2022-07-26T21:11:44.509Z,22.88
2022-07-26T21:14:33.198Z,24.17
2022-07-26T21:17:11.362Z,23.35
2022-07-26T21:20:00.229Z,30.15
2022-07-26T21:22:35.282Z,25.35
2022-07-26T21:25:22.217Z,30.08
2022-07-26T21:27:55.333Z,24.70
2022-07-26T21:30:43.196Z,25.33
2022-07-26T21:33:17.307Z,23.80
2022-07-26T21:36:05.194Z,22.45
2022-07-26T21:38:48.248Z,22.30
2022-07-26T21:41:43.196Z,21.88
2022-07-26T21:44:30.239Z,19.88
2022-07-26T21:47:05.773Z,22.90
2022-07-26T21:49:55.192Z,22.00
2022-07-26T21:52:35.194Z,24.48
2022-07-26T21:55:29.192Z,23.58
2022-07-26T21:58:16.236Z,21.38
2022-07-26T22:00:56.311Z,21.17
2022-07-26T22:03:51.200Z,21.85
2022-07-26T22:06:38.232Z,25.02
2022-07-26T22:09:19.203Z,20.15
2022-07-26T22:12:06.231Z,22.88
2022-07-26T22:14:46.228Z,22.48
2022-07-26T22:17:33.205Z,20.50
2022-07-26T22:20:06.377Z,20.95
2022-07-26T22:22:53.210Z,22.60
2022-07-26T22:25:26.339Z,21.83
2022-07-26T22:28:17.979Z,23.60
2022-07-26T22:31:01.217Z,20.83
2022-07-26T22:33:48.237Z,20.08
2022-07-26T22:36:28.230Z,22.42
2022-07-26T22:39:15.550Z,21.08
2022-07-26T22:42:13.749Z,24.27
2022-07-26T22:44:56.238Z,22.63
2022-07-26T22:47:29.365Z,21.33
2022-07-26T22:50:19.387Z,22.90
2022-07-26T22:52:52.390Z,23.40
2022-07-26T22:55:41.299Z,21.23
2022-07-26T22:58:21.233Z,24.58
2022-07-26T23:01:15.262Z,26.42
2022-07-26T23:04:03.419Z,25.20
2022-07-26T23:06:39.323Z,25.70
2022-07-26T23:09:27.279Z,42.55
2022-07-26T23:12:00.359Z,25.27
2022-07-26T23:14:47.288Z,26.15
2022-07-26T23:17:20.367Z,24.73
2022-07-26T23:20:07.229Z,27.65
2022-07-26T23:22:43.334Z,22.45
2022-07-26T23:25:30.249Z,24.40
2022-07-26T23:28:03.359Z,26.23
2022-07-26T23:30:50.238Z,23.42
2022-07-26T23:33:51.441Z,21.45
2022-07-26T23:36:44.262Z,22.35
2022-07-26T23:39:38.238Z,20.35
2022-07-26T23:42:25.290Z,25.63
2022-07-26T23:44:58.344Z,19.73
2022-07-26T23:47:45.288Z,21.98
2022-07-26T23:50:25.304Z,28.88
2022-07-26T23:53:12.252Z,24.98
2022-07-26T23:55:49.102Z,25.17
2022-07-26T23:58:36.275Z,27.45
